sensor_id;sensor_type;location;lat;lon;timestamp;temperature;humidity
26803;DHT22;14378;51.796;5.808;2022-07-24T00:03:10;18.50;99.90
26803;DHT22;14378;51.796;5.808;2022-07-24T00:05:11;18.40;99.90
26803;DHT22;14378;51.796;5.808;2022-07-24T00:07:12;18.40;99.90
26803;DHT22;14378;51.796;5.808;2022-07-24T00:09:13;18.30;99.90
26803;DHT22;14378;51.796;5.808;2022-07-24T00:11:16;18.40;99.90
26803;DHT22;14378;51.796;5.808;2022-07-24T00:13:18;18.40;99.90
26803;DHT22;14378;51.796;5.808;2022-07-24T00:15:19;18.30;99.90
26803;DHT22;14378;51.796;5.808;2022-07-24T00:17:20;18.30;99.90
26803;DHT22;14378;51.796;5.808;2022-07-24T00:19:21;18.30;99.90
26803;DHT22;14378;51.796;5.808;2022-07-24T00:21:22;18.30;99.90
26803;DHT22;14378;51.796;5.808;2022-07-24T00:23:23;18.30;99.90
26803;DHT22;14378;51.796;5.808;2022-07-24T00:25:25;18.30;99.90
26803;DHT22;14378;51.796;5.808;2022-07-24T00:27:26;18.30;99.90
26803;DHT22;14378;51.796;5.808;2022-07-24T00:29:28;18.30;99.90
26803;DHT22;14378;51.796;5.808;2022-07-24T00:31:31;18.30;99.90
26803;DHT22;14378;51.796;5.808;2022-07-24T00:33:32;18.20;99.90
26803;DHT22;14378;51.796;5.808;2022-07-24T00:35:36;18.20;99.90
26803;DHT22;14378;51.796;5.808;2022-07-24T00:37:44;18.20;99.90
26803;DHT22;14378;51.796;5.808;2022-07-24T00:40:01;18.20;99.90
26803;DHT22;14378;51.796;5.808;2022-07-24T00:42:09;18.20;99.90
26803;DHT22;14378;51.796;5.808;2022-07-24T00:44:14;18.20;99.90
26803;DHT22;14378;51.796;5.808;2022-07-24T00:46:23;18.20;99.90
26803;DHT22;14378;51.796;5.808;2022-07-24T00:48:25;18.20;99.90
26803;DHT22;14378;51.796;5.808;2022-07-24T00:50:27;18.20;99.90
26803;DHT22;14378;51.796;5.808;2022-07-24T00:52:28;18.20;99.90
26803;DHT22;14378;51.796;5.808;2022-07-24T00:54:29;18.20;99.90
26803;DHT22;14378;51.796;5.808;2022-07-24T00:56:31;18.20;99.90
26803;DHT22;14378;51.796;5.808;2022-07-24T00:58:35;18.20;99.90
26803;DHT22;14378;51.796;5.808;2022-07-24T01:00:36;18.20;99.90
26803;DHT22;14378;51.796;5.808;2022-07-24T01:02:49;18.20;99.90
26803;DHT22;14378;51.796;5.808;2022-07-24T01:04:51;18.20;99.90
26803;DHT22;14378;51.796;5.808;2022-07-24T01:06:52;18.20;99.90
26803;DHT22;14378;51.796;5.808;2022-07-24T01:08:54;18.20;99.90
26803;DHT22;14378;51.796;5.808;2022-07-24T01:10:55;18.20;99.90
26803;DHT22;14378;51.796;5.808;2022-07-24T01:12:57;18.20;99.90
26803;DHT22;14378;51.796;5.808;2022-07-24T01:14:58;18.20;99.90
26803;DHT22;14378;51.796;5.808;2022-07-24T01:17:02;18.20;99.90
26803;DHT22;14378;51.796;5.808;2022-07-24T01:19:03;18.20;99.90
26803;DHT22;14378;51.796;5.808;2022-07-24T01:21:05;18.20;99.90
26803;DHT22;14378;51.796;5.808;2022-07-24T01:23:09;18.20;99.90
26803;DHT22;14378;51.796;5.808;2022-07-24T01:25:10;18.10;99.90
26803;DHT22;14378;51.796;5.808;2022-07-24T01:27:15;18.20;99.90
26803;DHT22;14378;51.796;5.808;2022-07-24T01:29:16;18.20;99.90
26803;DHT22;14378;51.796;5.808;2022-07-24T01:31:17;18.20;99.90
26803;DHT22;14378;51.796;5.808;2022-07-24T01:33:21;18.20;99.90
26803;DHT22;14378;51.796;5.808;2022-07-24T01:35:22;18.20;99.90
26803;DHT22;14378;51.796;5.808;2022-07-24T01:37:23;18.30;99.90
26803;DHT22;14378;51.796;5.808;2022-07-24T01:39:24;18.30;99.90
26803;DHT22;14378;51.796;5.808;2022-07-24T01:41:26;18.30;99.90
26803;DHT22;14378;51.796;5.808;2022-07-24T01:43:27;18.30;99.90
26803;DHT22;14378;51.796;5.808;2022-07-24T01:45:28;18.30;99.90
26803;DHT22;14378;51.796;5.808;2022-07-24T01:47:33;18.30;99.90
26803;DHT22;14378;51.796;5.808;2022-07-24T01:49:34;18.30;99.90
26803;DHT22;14378;51.796;5.808;2022-07-24T01:51:35;18.30;99.90
26803;DHT22;14378;51.796;5.808;2022-07-24T01:53:36;18.30;99.90
26803;DHT22;14378;51.796;5.808;2022-07-24T01:55:37;18.30;99.90
26803;DHT22;14378;51.796;5.808;2022-07-24T01:57:38;18.30;99.90
26803;DHT22;14378;51.796;5.808;2022-07-24T01:59:39;18.30;99.90
26803;DHT22;14378;51.796;5.808;2022-07-24T02:01:41;18.30;99.90
26803;DHT22;14378;51.796;5.808;2022-07-24T02:03:42;18.30;99.90
26803;DHT22;14378;51.796;5.808;2022-07-24T02:05:45;18.30;99.90
26803;DHT22;14378;51.796;5.808;2022-07-24T02:07:55;18.30;99.90
26803;DHT22;14378;51.796;5.808;2022-07-24T02:09:57;18.30;99.90
26803;DHT22;14378;51.796;5.808;2022-07-24T02:11:59;18.30;99.90
26803;DHT22;14378;51.796;5.808;2022-07-24T02:14:00;18.30;99.90
26803;DHT22;14378;51.796;5.808;2022-07-24T02:16:01;18.30;99.90
26803;DHT22;14378;51.796;5.808;2022-07-24T02:18:03;18.30;99.90
26803;DHT22;14378;51.796;5.808;2022-07-24T02:20:08;18.40;99.90
26803;DHT22;14378;51.796;5.808;2022-07-24T02:22:10;18.30;99.90
26803;DHT22;14378;51.796;5.808;2022-07-24T02:24:11;18.30;99.90
26803;DHT22;14378;51.796;5.808;2022-07-24T02:26:12;18.30;99.90
26803;DHT22;14378;51.796;5.808;2022-07-24T02:28:17;18.30;99.90
26803;DHT22;14378;51.796;5.808;2022-07-24T02:30:20;18.40;99.90
26803;DHT22;14378;51.796;5.808;2022-07-24T02:32:24;18.30;99.90
26803;DHT22;14378;51.796;5.808;2022-07-24T02:34:29;18.30;99.90
26803;DHT22;14378;51.796;5.808;2022-07-24T02:36:30;18.40;99.90
26803;DHT22;14378;51.796;5.808;2022-07-24T02:38:32;18.30;99.90
26803;DHT22;14378;51.796;5.808;2022-07-24T02:40:36;18.30;99.90
26803;DHT22;14378;51.796;5.808;2022-07-24T02:42:38;18.30;99.90
26803;DHT22;14378;51.796;5.808;2022-07-24T02:44:39;18.40;99.90
26803;DHT22;14378;51.796;5.808;2022-07-24T02:46:40;18.30;99.90
26803;DHT22;14378;51.796;5.808;2022-07-24T02:48:41;18.30;99.90
26803;DHT22;14378;51.796;5.808;2022-07-24T02:50:43;18.40;99.90
26803;DHT22;14378;51.796;5.808;2022-07-24T02:52:50;18.40;99.90
26803;DHT22;14378;51.796;5.808;2022-07-24T02:54:51;18.40;99.90
26803;DHT22;14378;51.796;5.808;2022-07-24T02:56:53;18.40;99.90
26803;DHT22;14378;51.796;5.808;2022-07-24T02:58:54;18.30;99.90
26803;DHT22;14378;51.796;5.808;2022-07-24T03:00:55;18.40;99.90
26803;DHT22;14378;51.796;5.808;2022-07-24T03:02:57;18.30;99.90
26803;DHT22;14378;51.796;5.808;2022-07-24T03:04:58;18.40;99.90
26803;DHT22;14378;51.796;5.808;2022-07-24T03:07:03;18.30;99.90
26803;DHT22;14378;51.796;5.808;2022-07-24T03:09:05;18.30;99.90
26803;DHT22;14378;51.796;5.808;2022-07-24T03:11:06;18.30;99.90
26803;DHT22;14378;51.796;5.808;2022-07-24T03:13:10;18.30;99.90
26803;DHT22;14378;51.796;5.808;2022-07-24T03:15:13;18.30;99.90
26803;DHT22;14378;51.796;5.808;2022-07-24T03:17:15;18.30;99.90
26803;DHT22;14378;51.796;5.808;2022-07-24T03:19:19;18.20;99.90
26803;DHT22;14378;51.796;5.808;2022-07-24T03:21:25;18.10;99.90
26803;DHT22;14378;51.796;5.808;2022-07-24T03:23:28;18.10;99.90
26803;DHT22;14378;51.796;5.808;2022-07-24T03:25:29;18.10;99.90
26803;DHT22;14378;51.796;5.808;2022-07-24T03:27:30;18.00;99.90
26803;DHT22;14378;51.796;5.808;2022-07-24T03:29:31;18.10;99.90
26803;DHT22;14378;51.796;5.808;2022-07-24T03:31:33;18.10;99.90
26803;DHT22;14378;51.796;5.808;2022-07-24T03:33:37;18.00;99.90
26803;DHT22;14378;51.796;5.808;2022-07-24T03:35:38;18.00;99.90
26803;DHT22;14378;51.796;5.808;2022-07-24T03:37:40;18.00;99.90
26803;DHT22;14378;51.796;5.808;2022-07-24T03:39:41;18.00;99.90
26803;DHT22;14378;51.796;5.808;2022-07-24T03:41:44;18.00;99.90
26803;DHT22;14378;51.796;5.808;2022-07-24T03:43:46;18.00;99.90
26803;DHT22;14378;51.796;5.808;2022-07-24T03:45:47;18.00;99.90
26803;DHT22;14378;51.796;5.808;2022-07-24T03:47:51;18.00;99.90
26803;DHT22;14378;51.796;5.808;2022-07-24T03:49:52;18.00;99.90
26803;DHT22;14378;51.796;5.808;2022-07-24T03:51:53;18.00;99.90
26803;DHT22;14378;51.796;5.808;2022-07-24T03:53:54;18.00;99.90
26803;DHT22;14378;51.796;5.808;2022-07-24T03:55:56;18.00;99.90
26803;DHT22;14378;51.796;5.808;2022-07-24T03:57:56;17.90;99.90
26803;DHT22;14378;51.796;5.808;2022-07-24T03:59:57;17.90;99.90
26803;DHT22;14378;51.796;5.808;2022-07-24T04:01:58;17.90;99.90
26803;DHT22;14378;51.796;5.808;2022-07-24T04:04:00;17.90;99.90
26803;DHT22;14378;51.796;5.808;2022-07-24T04:06:05;17.90;99.90
26803;DHT22;14378;51.796;5.808;2022-07-24T04:08:07;17.90;99.90
26803;DHT22;14378;51.796;5.808;2022-07-24T04:10:08;17.90;99.90
26803;DHT22;14378;51.796;5.808;2022-07-24T04:12:09;17.90;99.90
26803;DHT22;14378;51.796;5.808;2022-07-24T04:14:10;17.80;99.90
26803;DHT22;14378;51.796;5.808;2022-07-24T04:16:20;17.80;99.90
26803;DHT22;14378;51.796;5.808;2022-07-24T04:18:21;17.80;99.90
26803;DHT22;14378;51.796;5.808;2022-07-24T04:20:24;17.80;99.90
26803;DHT22;14378;51.796;5.808;2022-07-24T04:22:25;17.80;99.90
26803;DHT22;14378;51.796;5.808;2022-07-24T04:24:28;17.80;99.90
26803;DHT22;14378;51.796;5.808;2022-07-24T04:26:29;17.80;99.90
26803;DHT22;14378;51.796;5.808;2022-07-24T04:28:34;17.80;99.90
26803;DHT22;14378;51.796;5.808;2022-07-24T04:30:37;17.80;99.90
26803;DHT22;14378;51.796;5.808;2022-07-24T04:32:38;17.80;99.90
26803;DHT22;14378;51.796;5.808;2022-07-24T04:34:43;17.80;99.90
26803;DHT22;14378;51.796;5.808;2022-07-24T04:36:47;17.80;99.90
26803;DHT22;14378;51.796;5.808;2022-07-24T04:38:48;17.80;99.90
26803;DHT22;14378;51.796;5.808;2022-07-24T04:40:49;17.80;99.90
26803;DHT22;14378;51.796;5.808;2022-07-24T04:42:50;17.80;99.90
26803;DHT22;14378;51.796;5.808;2022-07-24T04:44:51;17.80;99.90
26803;DHT22;14378;51.796;5.808;2022-07-24T04:46:56;17.80;99.90
26803;DHT22;14378;51.796;5.808;2022-07-24T04:48:57;17.80;99.90
26803;DHT22;14378;51.796;5.808;2022-07-24T04:50:58;17.90;99.90
26803;DHT22;14378;51.796;5.808;2022-07-24T04:52:59;17.90;99.90
26803;DHT22;14378;51.796;5.808;2022-07-24T04:55:00;17.90;99.90
26803;DHT22;14378;51.796;5.808;2022-07-24T04:57:01;17.90;99.90
26803;DHT22;14378;51.796;5.808;2022-07-24T04:59:02;17.90;99.90
26803;DHT22;14378;51.796;5.808;2022-07-24T05:01:03;17.90;99.90
26803;DHT22;14378;51.796;5.808;2022-07-24T05:03:04;17.90;99.90
26803;DHT22;14378;51.796;5.808;2022-07-24T05:05:07;17.90;99.90
26803;DHT22;14378;51.796;5.808;2022-07-24T05:07:08;17.90;99.90
26803;DHT22;14378;51.796;5.808;2022-07-24T05:09:10;17.90;99.90
26803;DHT22;14378;51.796;5.808;2022-07-24T05:11:11;18.00;99.90
26803;DHT22;14378;51.796;5.808;2022-07-24T05:13:12;18.00;99.90
26803;DHT22;14378;51.796;5.808;2022-07-24T05:15:13;18.00;99.90
26803;DHT22;14378;51.796;5.808;2022-07-24T05:17:15;18.00;99.90
26803;DHT22;14378;51.796;5.808;2022-07-24T05:19:17;18.00;99.90
26803;DHT22;14378;51.796;5.808;2022-07-24T05:21:18;18.10;99.90
26803;DHT22;14378;51.796;5.808;2022-07-24T05:23:25;18.10;99.90
26803;DHT22;14378;51.796;5.808;2022-07-24T05:25:26;18.10;99.90
26803;DHT22;14378;51.796;5.808;2022-07-24T05:27:28;18.10;99.90
26803;DHT22;14378;51.796;5.808;2022-07-24T05:29:29;18.10;99.90
26803;DHT22;14378;51.796;5.808;2022-07-24T05:31:30;18.20;99.90
26803;DHT22;14378;51.796;5.808;2022-07-24T05:33:31;18.20;99.90
26803;DHT22;14378;51.796;5.808;2022-07-24T05:35:33;18.20;99.90
26803;DHT22;14378;51.796;5.808;2022-07-24T05:37:38;18.30;99.90
26803;DHT22;14378;51.796;5.808;2022-07-24T05:39:40;18.30;99.90
26803;DHT22;14378;51.796;5.808;2022-07-24T05:41:41;18.30;99.90
26803;DHT22;14378;51.796;5.808;2022-07-24T05:43:42;18.30;99.90
26803;DHT22;14378;51.796;5.808;2022-07-24T05:45:44;18.40;99.90
26803;DHT22;14378;51.796;5.808;2022-07-24T05:47:47;18.40;99.90
26803;DHT22;14378;51.796;5.808;2022-07-24T05:49:48;18.50;99.90
26803;DHT22;14378;51.796;5.808;2022-07-24T05:51:49;18.50;99.90
26803;DHT22;14378;51.796;5.808;2022-07-24T05:53:51;18.50;99.90
26803;DHT22;14378;51.796;5.808;2022-07-24T05:55:53;18.50;99.90
26803;DHT22;14378;51.796;5.808;2022-07-24T05:57:57;18.60;99.90
26803;DHT22;14378;51.796;5.808;2022-07-24T05:59:58;18.60;99.90
26803;DHT22;14378;51.796;5.808;2022-07-24T06:02:00;18.70;99.90
26803;DHT22;14378;51.796;5.808;2022-07-24T06:04:04;18.70;99.90
26803;DHT22;14378;51.796;5.808;2022-07-24T06:06:05;18.80;99.90
26803;DHT22;14378;51.796;5.808;2022-07-24T06:08:07;18.90;99.90
26803;DHT22;14378;51.796;5.808;2022-07-24T06:10:10;18.90;99.90
26803;DHT22;14378;51.796;5.808;2022-07-24T06:12:11;18.90;99.90
26803;DHT22;14378;51.796;5.808;2022-07-24T06:14:15;18.90;99.90
26803;DHT22;14378;51.796;5.808;2022-07-24T06:16:16;18.90;99.90
26803;DHT22;14378;51.796;5.808;2022-07-24T06:18:17;19.00;99.90
26803;DHT22;14378;51.796;5.808;2022-07-24T06:20:18;19.10;99.90
26803;DHT22;14378;51.796;5.808;2022-07-24T06:22:22;19.10;99.90
26803;DHT22;14378;51.796;5.808;2022-07-24T06:24:23;19.20;99.90
26803;DHT22;14378;51.796;5.808;2022-07-24T06:26:26;19.20;99.90
26803;DHT22;14378;51.796;5.808;2022-07-24T06:28:27;19.20;99.90
26803;DHT22;14378;51.796;5.808;2022-07-24T06:30:28;19.30;99.90
26803;DHT22;14378;51.796;5.808;2022-07-24T06:32:29;19.40;99.90
26803;DHT22;14378;51.796;5.808;2022-07-24T06:34:30;19.50;99.90
26803;DHT22;14378;51.796;5.808;2022-07-24T06:36:31;19.60;99.90
26803;DHT22;14378;51.796;5.808;2022-07-24T06:38:32;19.70;99.90
26803;DHT22;14378;51.796;5.808;2022-07-24T06:40:33;19.80;99.90
26803;DHT22;14378;51.796;5.808;2022-07-24T06:42:35;19.90;99.90
26803;DHT22;14378;51.796;5.808;2022-07-24T06:44:36;20.00;99.90
26803;DHT22;14378;51.796;5.808;2022-07-24T06:46:39;20.10;99.90
26803;DHT22;14378;51.796;5.808;2022-07-24T06:48:41;20.20;99.90
26803;DHT22;14378;51.796;5.808;2022-07-24T06:50:42;20.20;99.90
26803;DHT22;14378;51.796;5.808;2022-07-24T06:52:44;20.30;99.90
26803;DHT22;14378;51.796;5.808;2022-07-24T06:54:48;20.40;99.90
26803;DHT22;14378;51.796;5.808;2022-07-24T06:56:49;20.50;99.90
26803;DHT22;14378;51.796;5.808;2022-07-24T06:58:49;20.60;99.90
26803;DHT22;14378;51.796;5.808;2022-07-24T07:00:52;20.60;99.90
26803;DHT22;14378;51.796;5.808;2022-07-24T07:02:53;20.70;99.90
26803;DHT22;14378;51.796;5.808;2022-07-24T07:04:54;20.80;99.90
26803;DHT22;14378;51.796;5.808;2022-07-24T07:06:55;20.90;99.90
26803;DHT22;14378;51.796;5.808;2022-07-24T07:08:57;21.10;99.90
26803;DHT22;14378;51.796;5.808;2022-07-24T07:10:58;21.10;99.90
26803;DHT22;14378;51.796;5.808;2022-07-24T07:12:59;21.30;99.90
26803;DHT22;14378;51.796;5.808;2022-07-24T07:15:00;21.40;99.90
26803;DHT22;14378;51.796;5.808;2022-07-24T07:17:01;21.40;99.90
26803;DHT22;14378;51.796;5.808;2022-07-24T07:19:02;21.60;99.90
26803;DHT22;14378;51.796;5.808;2022-07-24T07:21:04;21.70;99.90
26803;DHT22;14378;51.796;5.808;2022-07-24T07:23:06;21.80;99.90
26803;DHT22;14378;51.796;5.808;2022-07-24T07:25:09;21.90;99.90
26803;DHT22;14378;51.796;5.808;2022-07-24T07:27:11;22.00;99.90
26803;DHT22;14378;51.796;5.808;2022-07-24T07:29:13;22.10;99.90
26803;DHT22;14378;51.796;5.808;2022-07-24T07:31:15;22.20;99.90
26803;DHT22;14378;51.796;5.808;2022-07-24T07:33:16;22.20;99.90
26803;DHT22;14378;51.796;5.808;2022-07-24T07:35:17;22.30;99.90
26803;DHT22;14378;51.796;5.808;2022-07-24T07:37:20;22.30;99.90
26803;DHT22;14378;51.796;5.808;2022-07-24T07:39:22;22.40;99.90
26803;DHT22;14378;51.796;5.808;2022-07-24T07:41:24;22.30;99.90
26803;DHT22;14378;51.796;5.808;2022-07-24T07:43:25;22.40;99.90
26803;DHT22;14378;51.796;5.808;2022-07-24T07:45:26;22.50;99.90
26803;DHT22;14378;51.796;5.808;2022-07-24T07:47:27;22.50;99.90
26803;DHT22;14378;51.796;5.808;2022-07-24T07:49:28;22.60;99.90
26803;DHT22;14378;51.796;5.808;2022-07-24T07:51:30;22.70;99.90
26803;DHT22;14378;51.796;5.808;2022-07-24T07:53:34;22.80;99.90
26803;DHT22;14378;51.796;5.808;2022-07-24T07:55:41;22.90;99.90
26803;DHT22;14378;51.796;5.808;2022-07-24T07:57:47;23.10;99.90
26803;DHT22;14378;51.796;5.808;2022-07-24T07:59:48;23.20;99.90
26803;DHT22;14378;51.796;5.808;2022-07-24T08:01:50;23.20;99.90
26803;DHT22;14378;51.796;5.808;2022-07-24T08:03:52;23.30;99.90
26803;DHT22;14378;51.796;5.808;2022-07-24T08:05:53;23.30;99.90
26803;DHT22;14378;51.796;5.808;2022-07-24T08:07:54;23.50;99.90
26803;DHT22;14378;51.796;5.808;2022-07-24T08:09:56;23.60;99.90
26803;DHT22;14378;51.796;5.808;2022-07-24T08:11:59;23.70;99.90
26803;DHT22;14378;51.796;5.808;2022-07-24T08:14:04;23.80;99.90
26803;DHT22;14378;51.796;5.808;2022-07-24T08:16:24;24.00;99.90
26803;DHT22;14378;51.796;5.808;2022-07-24T08:18:29;24.10;99.90
26803;DHT22;14378;51.796;5.808;2022-07-24T08:20:58;24.20;99.90
26803;DHT22;14378;51.796;5.808;2022-07-24T08:23:01;24.40;99.90
26803;DHT22;14378;51.796;5.808;2022-07-24T08:25:04;24.40;99.90
26803;DHT22;14378;51.796;5.808;2022-07-24T08:27:06;24.50;99.90
26803;DHT22;14378;51.796;5.808;2022-07-24T08:29:07;24.60;99.90
26803;DHT22;14378;51.796;5.808;2022-07-24T08:31:11;24.70;99.90
26803;DHT22;14378;51.796;5.808;2022-07-24T08:33:12;24.80;99.90
26803;DHT22;14378;51.796;5.808;2022-07-24T08:35:14;24.80;99.10
26803;DHT22;14378;51.796;5.808;2022-07-24T08:37:19;24.90;99.50
26803;DHT22;14378;51.796;5.808;2022-07-24T08:39:21;25.00;99.10
26803;DHT22;14378;51.796;5.808;2022-07-24T08:41:22;25.00;97.40
26803;DHT22;14378;51.796;5.808;2022-07-24T08:43:24;25.10;98.50
26803;DHT22;14378;51.796;5.808;2022-07-24T08:45:25;25.10;98.40
26803;DHT22;14378;51.796;5.808;2022-07-24T08:47:28;25.20;98.50
26803;DHT22;14378;51.796;5.808;2022-07-24T08:49:33;25.30;98.80
26803;DHT22;14378;51.796;5.808;2022-07-24T08:51:38;25.40;99.00
26803;DHT22;14378;51.796;5.808;2022-07-24T08:53:40;25.50;98.90
26803;DHT22;14378;51.796;5.808;2022-07-24T08:55:43;25.60;97.30
26803;DHT22;14378;51.796;5.808;2022-07-24T08:57:47;25.70;96.80
26803;DHT22;14378;51.796;5.808;2022-07-24T08:59:48;25.80;96.40
26803;DHT22;14378;51.796;5.808;2022-07-24T09:01:56;25.90;97.20
26803;DHT22;14378;51.796;5.808;2022-07-24T09:03:57;25.90;96.40
26803;DHT22;14378;51.796;5.808;2022-07-24T09:05:59;26.00;97.20
26803;DHT22;14378;51.796;5.808;2022-07-24T09:08:10;26.10;96.90
26803;DHT22;14378;51.796;5.808;2022-07-24T09:10:14;26.20;97.20
26803;DHT22;14378;51.796;5.808;2022-07-24T09:12:18;26.40;97.40
26803;DHT22;14378;51.796;5.808;2022-07-24T09:14:33;26.50;96.50
26803;DHT22;14378;51.796;5.808;2022-07-24T09:16:34;26.70;97.00
26803;DHT22;14378;51.796;5.808;2022-07-24T09:18:39;26.90;96.70
26803;DHT22;14378;51.796;5.808;2022-07-24T09:20:40;27.00;94.80
26803;DHT22;14378;51.796;5.808;2022-07-24T09:22:42;27.00;95.30
26803;DHT22;14378;51.796;5.808;2022-07-24T09:24:43;27.10;96.50
26803;DHT22;14378;51.796;5.808;2022-07-24T09:26:55;27.20;95.50
26803;DHT22;14378;51.796;5.808;2022-07-24T09:28:56;27.30;94.80
26803;DHT22;14378;51.796;5.808;2022-07-24T09:31:01;27.30;94.40
26803;DHT22;14378;51.796;5.808;2022-07-24T09:33:06;27.30;94.50
26803;DHT22;14378;51.796;5.808;2022-07-24T09:35:08;27.40;95.50
26803;DHT22;14378;51.796;5.808;2022-07-24T09:37:09;27.40;94.60
26803;DHT22;14378;51.796;5.808;2022-07-24T09:39:17;27.40;94.70
26803;DHT22;14378;51.796;5.808;2022-07-24T09:41:23;27.50;94.40
26803;DHT22;14378;51.796;5.808;2022-07-24T09:43:29;27.50;93.70
26803;DHT22;14378;51.796;5.808;2022-07-24T09:46:03;27.40;93.70
26803;DHT22;14378;51.796;5.808;2022-07-24T09:48:05;27.50;94.40
26803;DHT22;14378;51.796;5.808;2022-07-24T09:50:15;27.60;95.20
26803;DHT22;14378;51.796;5.808;2022-07-24T09:52:19;27.70;94.20
26803;DHT22;14378;51.796;5.808;2022-07-24T09:54:35;27.70;94.50
26803;DHT22;14378;51.796;5.808;2022-07-24T09:56:36;27.80;93.50
26803;DHT22;14378;51.796;5.808;2022-07-24T09:58:51;27.80;93.70
26803;DHT22;14378;51.796;5.808;2022-07-24T10:00:54;27.80;94.00
26803;DHT22;14378;51.796;5.808;2022-07-24T10:03:00;27.80;94.30
26803;DHT22;14378;51.796;5.808;2022-07-24T10:05:07;28.10;95.70
26803;DHT22;14378;51.796;5.808;2022-07-24T10:07:13;28.30;94.90
26803;DHT22;14378;51.796;5.808;2022-07-24T10:09:19;28.30;93.30
26803;DHT22;14378;51.796;5.808;2022-07-24T10:11:23;28.20;93.60
26803;DHT22;14378;51.796;5.808;2022-07-24T10:13:27;28.30;94.00
26803;DHT22;14378;51.796;5.808;2022-07-24T10:15:30;28.60;94.70
26803;DHT22;14378;51.796;5.808;2022-07-24T10:19:49;29.30;94.70
26803;DHT22;14378;51.796;5.808;2022-07-24T10:21:53;29.60;95.00
26803;DHT22;14378;51.796;5.808;2022-07-24T10:26:07;30.00;93.70
26803;DHT22;14378;51.796;5.808;2022-07-24T10:28:08;30.10;93.40
26803;DHT22;14378;51.796;5.808;2022-07-24T10:30:16;30.30;92.80
26803;DHT22;14378;51.796;5.808;2022-07-24T10:32:17;30.20;92.20
26803;DHT22;14378;51.796;5.808;2022-07-24T10:34:51;30.20;92.70
26803;DHT22;14378;51.796;5.808;2022-07-24T10:39:26;30.20;92.90
26803;DHT22;14378;51.796;5.808;2022-07-24T10:41:31;30.10;91.50
26803;DHT22;14378;51.796;5.808;2022-07-24T10:43:32;29.90;91.90
26803;DHT22;14378;51.796;5.808;2022-07-24T10:45:46;30.00;91.60
26803;DHT22;14378;51.796;5.808;2022-07-24T10:47:48;30.10;92.60
26803;DHT22;14378;51.796;5.808;2022-07-24T10:49:50;30.20;91.70
26803;DHT22;14378;51.796;5.808;2022-07-24T10:52:03;30.10;90.70
26803;DHT22;14378;51.796;5.808;2022-07-24T10:54:17;29.90;91.80
26803;DHT22;14378;51.796;5.808;2022-07-24T10:58:51;30.30;92.80
26803;DHT22;14378;51.796;5.808;2022-07-24T11:00:53;30.50;91.30
26803;DHT22;14378;51.796;5.808;2022-07-24T11:03:02;30.40;91.40
26803;DHT22;14378;51.796;5.808;2022-07-24T11:05:26;30.50;91.50
26803;DHT22;14378;51.796;5.808;2022-07-24T11:07:28;30.70;90.90
26803;DHT22;14378;51.796;5.808;2022-07-24T11:09:29;30.80;91.70
26803;DHT22;14378;51.796;5.808;2022-07-24T11:11:30;31.00;92.90
26803;DHT22;14378;51.796;5.808;2022-07-24T11:18:14;31.50;90.50
26803;DHT22;14378;51.796;5.808;2022-07-24T11:20:19;31.30;90.50
26803;DHT22;14378;51.796;5.808;2022-07-24T11:22:54;31.30;90.90
26803;DHT22;14378;51.796;5.808;2022-07-24T11:25:15;31.30;90.00
26803;DHT22;14378;51.796;5.808;2022-07-24T11:27:17;31.40;91.10
26803;DHT22;14378;51.796;5.808;2022-07-24T11:29:28;31.60;91.20
26803;DHT22;14378;51.796;5.808;2022-07-24T11:31:32;31.70;90.50
26803;DHT22;14378;51.796;5.808;2022-07-24T11:33:34;31.70;91.30
26803;DHT22;14378;51.796;5.808;2022-07-24T11:35:37;31.80;91.70
26803;DHT22;14378;51.796;5.808;2022-07-24T11:37:40;31.80;90.60
26803;DHT22;14378;51.796;5.808;2022-07-24T11:39:44;31.90;90.60
26803;DHT22;14378;51.796;5.808;2022-07-24T11:41:49;32.00;90.80
26803;DHT22;14378;51.796;5.808;2022-07-24T11:43:54;31.90;89.30
26803;DHT22;14378;51.796;5.808;2022-07-24T11:45:55;31.90;90.90
26803;DHT22;14378;51.796;5.808;2022-07-24T11:47:57;32.10;91.00
26803;DHT22;14378;51.796;5.808;2022-07-24T11:50:02;32.20;90.50
26803;DHT22;14378;51.796;5.808;2022-07-24T11:52:04;32.30;90.60
26803;DHT22;14378;51.796;5.808;2022-07-24T11:54:05;32.60;90.80
26803;DHT22;14378;51.796;5.808;2022-07-24T11:56:07;32.60;89.70
26803;DHT22;14378;51.796;5.808;2022-07-24T11:58:08;32.60;89.80
26803;DHT22;14378;51.796;5.808;2022-07-24T12:00:21;32.90;90.30
26803;DHT22;14378;51.796;5.808;2022-07-24T12:02:22;33.20;89.70
26803;DHT22;14378;51.796;5.808;2022-07-24T12:04:23;33.30;88.30
26803;DHT22;14378;51.796;5.808;2022-07-24T12:06:26;33.40;89.60
26803;DHT22;14378;51.796;5.808;2022-07-24T12:08:27;33.60;90.80
26803;DHT22;14378;51.796;5.808;2022-07-24T12:10:29;33.70;89.40
26803;DHT22;14378;51.796;5.808;2022-07-24T12:12:37;33.60;88.30
26803;DHT22;14378;51.796;5.808;2022-07-24T12:14:42;33.30;87.00
26803;DHT22;14378;51.796;5.808;2022-07-24T12:16:44;33.30;88.50
26803;DHT22;14378;51.796;5.808;2022-07-24T12:18:51;33.40;90.50
26803;DHT22;14378;51.796;5.808;2022-07-24T12:20:58;33.70;90.60
26803;DHT22;14378;51.796;5.808;2022-07-24T12:23:03;33.60;86.60
26803;DHT22;14378;51.796;5.808;2022-07-24T12:25:06;33.40;87.40
26803;DHT22;14378;51.796;5.808;2022-07-24T12:27:07;33.40;87.30
26803;DHT22;14378;51.796;5.808;2022-07-24T12:29:09;33.40;86.90
26803;DHT22;14378;51.796;5.808;2022-07-24T12:31:11;33.50;85.70
26803;DHT22;14378;51.796;5.808;2022-07-24T12:35:20;33.70;87.70
26803;DHT22;14378;51.796;5.808;2022-07-24T12:37:22;33.90;89.00
26803;DHT22;14378;51.796;5.808;2022-07-24T12:39:23;34.20;89.90
26803;DHT22;14378;51.796;5.808;2022-07-24T12:41:26;34.60;87.50
26803;DHT22;14378;51.796;5.808;2022-07-24T12:43:32;34.70;87.10
26803;DHT22;14378;51.796;5.808;2022-07-24T12:45:33;34.70;86.40
26803;DHT22;14378;51.796;5.808;2022-07-24T12:50:13;34.90;86.70
26803;DHT22;14378;51.796;5.808;2022-07-24T12:52:23;35.20;85.40
26803;DHT22;14378;51.796;5.808;2022-07-24T12:54:33;35.20;85.60
26803;DHT22;14378;51.796;5.808;2022-07-24T12:56:35;35.20;86.80
26803;DHT22;14378;51.796;5.808;2022-07-24T12:58:56;35.30;84.40
26803;DHT22;14378;51.796;5.808;2022-07-24T13:00:57;34.90;82.70
26803;DHT22;14378;51.796;5.808;2022-07-24T13:02:59;34.80;85.00
26803;DHT22;14378;51.796;5.808;2022-07-24T13:05:05;34.90;84.20
26803;DHT22;14378;51.796;5.808;2022-07-24T13:07:08;35.00;85.40
26803;DHT22;14378;51.796;5.808;2022-07-24T13:09:11;35.10;84.20
26803;DHT22;14378;51.796;5.808;2022-07-24T13:11:18;35.20;83.80
26803;DHT22;14378;51.796;5.808;2022-07-24T13:13:20;35.20;83.00
26803;DHT22;14378;51.796;5.808;2022-07-24T13:15:21;35.20;84.20
26803;DHT22;14378;51.796;5.808;2022-07-24T13:17:22;35.20;83.50
26803;DHT22;14378;51.796;5.808;2022-07-24T13:19:26;35.20;83.00